Time;durP1;ratioP1;P1;durP2;ratioP2;P2;SDS_P1;SDS_P2;PMS_P1;PMS_P2;Temp;Humidity;BMP_temperature;BMP_pressure;BME280_temperature;BME280_humidity;BME280_pressure;Samples;Min_cycle;Max_cycle;Signal;HPM_P1;HPM_P2
2021/04/24 07:25:37;;;;;;;3.10;1.97;;;14.80;90.10;;;;;;3195231;23;20275;-76
2021/04/24 07:28:05;;;;;;;4.63;1.83;;;14.00;90.40;;;;;;4974290;28;20285;-75
2021/04/24 07:30:31;;;;;;;3.93;1.77;;;14.60;90.60;;;;;;4976793;28;20226;-76
2021/04/24 07:32:57;;;;;;;5.20;2.07;;;14.30;90.00;;;;;;4976386;28;20230;-76
2021/04/24 07:35:24;;;;;;;4.00;2.07;;;14.20;89.40;;;;;;4976451;28;20218;-77
2021/04/24 07:37:50;;;;;;;6.20;2.23;;;14.10;90.50;;;;;;4976814;28;20210;-75
2021/04/24 07:40:17;;;;;;;5.30;1.83;;;14.60;88.90;;;;;;4976202;28;20704;-77
2021/04/24 07:42:43;;;;;;;5.40;2.00;;;14.00;89.40;;;;;;4976175;28;20223;-76
2021/04/24 07:45:13;;;;;;;3.17;1.60;;;14.00;90.20;;;;;;4976372;28;20602;-78
2021/04/24 07:47:39;;;;;;;3.47;1.70;;;14.60;87.90;;;;;;4976449;28;20285;-77
2021/04/24 07:50:07;;;;;;;2.70;1.70;;;15.00;86.80;;;;;;4976348;28;20212;-78
2021/04/24 07:52:34;;;;;;;4.47;2.03;;;15.60;85.70;;;;;;4976474;28;20231;-77
2021/04/24 07:55:00;;;;;;;4.37;2.07;;;14.70;84.00;;;;;;4976067;28;20215;-77
2021/04/24 07:57:28;;;;;;;2.63;1.63;;;13.80;86.50;;;;;;4976189;28;20219;-78
2021/04/24 07:59:54;;;;;;;3.77;1.80;;;13.60;87.60;;;;;;4975984;28;20662;-78
2021/04/24 08:02:21;;;;;;;2.20;1.40;;;12.90;88.50;;;;;;4975601;28;20726;-77
2021/04/24 08:04:48;;;;;;;5.00;1.70;;;12.90;88.90;;;;;;4975996;28;20208;-77
2021/04/24 08:07:14;;;;;;;3.63;1.43;;;12.90;89.70;;;;;;4975805;28;20289;-78
2021/04/24 08:09:40;;;;;;;3.30;1.40;;;13.50;88.70;;;;;;4975908;28;20288;-76
2021/04/24 08:12:07;;;;;;;4.37;1.60;;;13.90;88.80;;;;;;4975890;28;20242;-77
2021/04/24 08:14:34;;;;;;;3.03;1.30;;;14.50;85.90;;;;;;4976090;28;20211;-77
2021/04/24 08:17:01;;;;;;;5.17;1.80;;;14.70;85.40;;;;;;4976028;28;20245;-76
2021/04/24 08:19:28;;;;;;;4.03;1.40;;;15.00;86.20;;;;;;4977909;28;20210;-76
2021/04/24 08:21:55;;;;;;;4.10;1.67;;;15.50;83.50;;;;;;4975884;28;20223;-75
2021/04/24 08:24:22;;;;;;;2.77;1.50;;;15.90;82.70;;;;;;4976220;28;20207;-75
2021/04/24 08:26:48;;;;;;;4.93;1.50;;;15.80;82.20;;;;;;4975595;28;20239;-75
2021/04/24 08:29:14;;;;;;;6.10;2.00;;;15.90;83.00;;;;;;4976040;28;20211;-76
2021/04/24 08:31:43;;;;;;;6.00;1.77;;;15.20;83.60;;;;;;4975459;28;20207;-74
2021/04/24 08:34:10;;;;;;;3.87;1.63;;;14.60;83.90;;;;;;4975763;28;20230;-73
2021/04/24 08:36:37;;;;;;;5.17;1.87;;;14.30;84.30;;;;;;4976385;28;20218;-76
2021/04/24 08:39:05;;;;;;;4.83;1.67;;;14.00;84.70;;;;;;4975938;28;20223;-76
2021/04/24 08:41:32;;;;;;;3.47;2.00;;;13.90;85.80;;;;;;4975543;28;20281;-75
2021/04/24 08:43:58;;;;;;;2.57;1.20;;;14.30;86.20;;;;;;4975319;28;20204;-75
2021/04/24 08:46:26;;;;;;;4.30;1.80;;;14.50;84.90;;;;;;4975709;28;20231;-75
2021/04/24 08:48:53;;;;;;;3.87;1.50;;;14.90;85.40;;;;;;4975478;28;20203;-75
2021/04/24 08:51:20;;;;;;;3.20;1.60;;;15.20;82.70;;;;;;4975700;28;20215;-75
2021/04/24 08:53:47;;;;;;;2.07;1.33;;;15.30;82.30;;;;;;4975062;28;20581;-75
2021/04/24 08:56:13;;;;;;;2.50;1.53;;;14.80;82.70;;;;;;4974997;28;20566;-75
2021/04/24 08:58:40;;;;;;;2.50;1.50;;;14.70;82.00;;;;;;4974893;28;20215;-75
2021/04/24 09:01:08;;;;;;;3.30;1.30;;;14.80;83.30;;;;;;4976679;28;20206;-75
2021/04/24 09:03:35;;;;;;;3.50;1.60;;;14.40;83.80;;;;;;4974875;28;20230;-75
2021/04/24 09:06:01;;;;;;;7.70;1.80;;;14.10;83.90;;;;;;4974871;28;20231;-75
2021/04/24 09:08:29;;;;;;;4.90;1.53;;;14.40;83.30;;;;;;4975009;28;20207;-74
2021/04/24 09:10:57;;;;;;;3.17;1.63;;;14.40;84.30;;;;;;4974576;28;20207;-74
2021/04/24 09:13:26;;;;;;;5.27;1.80;;;14.50;85.50;;;;;;4974658;28;20238;-74
2021/04/24 09:15:53;;;;;;;2.77;1.40;;;14.90;83.90;;;;;;4974785;28;20598;-74
2021/04/24 09:18:20;;;;;;;4.43;1.70;;;15.30;82.70;;;;;;4974915;28;20215;-75
2021/04/24 09:20:49;;;;;;;3.10;1.63;;;15.50;82.20;;;;;;4974745;28;20262;-74
2021/04/24 09:23:17;;;;;;;3.60;1.77;;;15.30;81.60;;;;;;4974477;28;20227;-75
2021/04/24 09:25:47;;;;;;;4.40;1.53;;;15.40;81.40;;;;;;4974219;28;20215;-75
2021/04/24 09:28:26;;;;;;;3.47;1.63;;;15.30;81.80;;;;;;4974412;28;20242;-75
2021/04/24 09:30:52;;;;;;;3.07;1.27;;;15.20;81.00;;;;;;4974291;28;20211;-75
2021/04/24 09:33:19;;;;;;;4.97;1.40;;;14.70;81.90;;;;;;4973738;28;20234;-75
2021/04/24 09:35:50;;;;;;;3.83;1.60;;;14.30;83.20;;;;;;4974548;28;20242;-74
2021/04/24 09:38:26;;;;;;;3.80;1.30;;;14.00;83.70;;;;;;4974115;28;20213;-75
2021/04/24 09:41:10;;;;;;;5.37;1.73;;;14.40;83.30;;;;;;4974334;28;20569;-74
2021/04/24 09:44:02;;;;;;;6.30;1.60;;;14.60;84.30;;;;;;4974280;28;20238;-74
2021/04/24 09:46:30;;;;;;;2.17;1.20;;;14.20;84.60;;;;;;4974384;28;20305;-74
2021/04/24 09:49:21;;;;;;;2.67;1.40;;;13.80;85.30;;;;;;4974530;28;20211;-75
2021/04/24 09:51:51;;;;;;;1.40;1.00;;;13.80;86.50;;;;;;4960203;28;20776;-75
2021/04/24 09:54:19;;;;;;;1.90;1.23;;;13.60;84.10;;;;;;4974412;28;20290;-75
2021/04/24 09:56:56;;;;;;;3.50;1.17;;;13.60;85.60;;;;;;4973970;28;20206;-75
2021/04/24 09:59:23;;;;;;;4.00;1.20;;;13.70;84.70;;;;;;4974056;28;20265;-74
2021/04/24 10:01:56;;;;;;;4.63;1.43;;;13.50;84.20;;;;;;4973993;28;20231;-74
2021/04/24 10:04:23;;;;;;;2.63;1.00;;;13.30;85.30;;;;;;4974246;28;20662;-74
2021/04/24 10:06:53;;;;;;;2.17;1.10;;;13.20;84.90;;;;;;4974102;28;20227;-75
2021/04/24 10:09:25;;;;;;;2.47;1.33;;;13.00;85.60;;;;;;4974046;28;20211;-76
2021/04/24 10:12:03;;;;;;;3.90;1.53;;;13.00;87.00;;;;;;4973898;28;20702;-76
2021/04/24 10:14:32;;;;;;;3.40;1.50;;;13.00;86.40;;;;;;4973677;28;20207;-75
2021/04/24 10:16:59;;;;;;;2.50;1.50;;;13.00;86.60;;;;;;4973669;28;20601;-76
2021/04/24 10:19:27;;;;;;;4.37;1.40;;;13.30;86.40;;;;;;4974077;28;20211;-76
2021/04/24 10:21:54;;;;;;;3.63;1.57;;;13.20;86.40;;;;;;4973639;28;20253;-75
2021/04/24 10:24:22;;;;;;;2.03;1.30;;;13.20;87.90;;;;;;4974296;28;20215;-75
2021/04/24 10:26:48;;;;;;;3.60;1.70;;;13.20;86.80;;;;;;4973641;28;20235;-75
2021/04/24 10:29:17;;;;;;;3.50;1.97;;;13.00;88.20;;;;;;4973888;28;20211;-75
2021/04/24 10:31:45;;;;;;;6.70;1.67;;;13.20;88.20;;;;;;4973893;28;20207;-75
2021/04/24 10:34:12;;;;;;;4.53;1.40;;;13.40;87.60;;;;;;4973805;28;20219;-76
2021/04/24 10:36:39;;;;;;;4.73;1.70;;;13.30;87.10;;;;;;4974030;28;20566;-75
2021/04/24 10:39:07;;;;;;;5.13;1.80;;;13.20;88.40;;;;;;4974047;28;20219;-75
2021/04/24 10:41:37;;;;;;;3.50;1.87;;;13.10;88.60;;;;;;4973763;28;20207;-76
2021/04/24 10:44:05;;;;;;;2.60;1.67;;;13.00;87.80;;;;;;4975343;28;20691;-75
2021/04/24 10:46:33;;;;;;;4.87;2.47;;;13.10;89.30;;;;;;4977488;28;20228;-75
2021/04/24 10:49:22;;;;;;;3.70;1.70;;;13.20;88.70;;;;;;4977469;28;20737;-75
2021/04/24 10:51:55;;;;;;;7.23;2.20;;;12.80;87.90;;;;;;4977544;28;20223;-75
2021/04/24 10:54:21;;;;;;;2.20;1.40;;;12.90;89.70;;;;;;4977341;28;20253;-75
2021/04/24 10:56:48;;;;;;;2.70;1.53;;;13.00;88.90;;;;;;4977077;28;20211;-73
2021/04/24 10:59:25;;;;;;;2.60;1.60;;;13.20;88.20;;;;;;4977254;28;20207;-74
2021/04/24 11:02:09;;;;;;;2.20;1.33;;;13.30;88.40;;;;;;4976999;28;20223;-74
2021/04/24 11:04:45;;;;;;;3.27;1.80;;;13.60;88.40;;;;;;4977377;28;20207;-75
2021/04/24 11:07:32;;;;;;;3.47;1.80;;;13.80;86.60;;;;;;4976992;28;20281;-73
2021/04/24 11:10:27;;;;;;;3.50;1.70;;;13.60;87.90;;;;;;4976788;28;20214;-74
2021/04/24 11:12:57;;;;;;;2.87;1.63;;;13.40;88.00;;;;;;4976732;28;20231;-74
2021/04/24 11:15:25;;;;;;;3.60;1.83;;;13.40;87.50;;;;;;4976768;28;20574;-74
2021/04/24 11:17:51;;;;;;;3.97;1.80;;;13.50;89.00;;;;;;4976753;28;20211;-74
2021/04/24 11:20:50;;;;;;;3.50;1.90;;;13.20;88.50;;;;;;4976568;28;20550;-74
2021/04/24 11:23:43;;;;;;;4.47;1.60;;;13.00;89.00;;;;;;4976730;28;20720;-75
2021/04/24 11:26:11;;;;;;;4.50;1.77;;;13.30;89.80;;;;;;4962693;28;20605;-74
2021/04/24 11:29:06;;;;;;;3.10;1.80;;;13.10;89.20;;;;;;4976623;28;20247;-73
2021/04/24 11:31:56;;;;;;;4.47;1.90;;;13.20;89.90;;;;;;4976764;28;20214;-73
2021/04/24 11:34:32;;;;;;;4.27;1.90;;;13.40;89.50;;;;;;4976632;28;20211;-74
2021/04/24 11:37:26;;;;;;;3.67;1.80;;;13.40;88.30;;;;;;4976689;28;20203;-74
2021/04/24 11:40:27;;;;;;;5.20;2.47;;;13.60;88.30;;;;;;4976694;28;20218;-74
2021/04/24 11:43:01;;;;;;;3.77;2.00;;;13.80;88.40;;;;;;4976415;28;20655;-73
2021/04/24 11:45:51;;;;;;;4.53;1.60;;;14.00;88.30;;;;;;4976792;28;20210;-74
2021/04/24 11:48:38;;;;;;;3.43;2.00;;;14.00;87.50;;;;;;4976314;28;20604;-74
2021/04/24 11:51:05;;;;;;;3.70;2.10;;;13.70;86.90;;;;;;4976119;28;20211;-74
2021/04/24 11:53:45;;;;;;;3.93;2.30;;;13.60;87.00;;;;;;4976261;28;20227;-74
2021/04/24 11:56:16;;;;;;;5.47;2.60;;;13.90;87.80;;;;;;4975335;28;20566;-76
2021/04/24 11:58:43;;;;;;;3.13;1.93;;;14.10;87.80;;;;;;4976645;28;20207;-75
2021/04/24 12:01:18;;;;;;;3.80;2.10;;;13.90;87.40;;;;;;4976278;28;20207;-73
2021/04/24 12:03:45;;;;;;;6.77;2.07;;;14.00;88.50;;;;;;4976102;28;20293;-75
2021/04/24 12:06:11;;;;;;;4.07;2.20;;;14.10;89.50;;;;;;4976080;28;20678;-74
2021/04/24 12:08:37;;;;;;;4.90;2.33;;;14.20;87.80;;;;;;4976363;28;20250;-75
2021/04/24 12:11:10;;;;;;;5.90;2.33;;;14.20;88.00;;;;;;4976034;28;20273;-74
2021/04/24 12:13:36;;;;;;;4.73;2.23;;;14.00;88.60;;;;;;4975906;28;20242;-75
2021/04/24 12:16:03;;;;;;;4.80;1.80;;;13.90;88.20;;;;;;4975808;28;20555;-75
2021/04/24 12:18:31;;;;;;;4.90;1.97;;;13.70;86.90;;;;;;4975701;28;20669;-74
2021/04/24 12:20:57;;;;;;;3.67;2.17;;;13.90;88.70;;;;;;4976311;28;20242;-74
2021/04/24 12:23:24;;;;;;;3.10;1.83;;;14.20;88.40;;;;;;4975803;28;20231;-74
2021/04/24 12:25:50;;;;;;;4.23;2.67;;;14.40;88.80;;;;;;4975823;28;20265;-74
2021/04/24 12:28:19;;;;;;;5.73;2.33;;;14.60;86.80;;;;;;4975484;28;20641;-74
2021/04/24 12:30:48;;;;;;;4.70;2.10;;;14.60;87.00;;;;;;4975662;28;20207;-76
2021/04/24 12:33:16;;;;;;;3.83;2.20;;;14.50;87.50;;;;;;4975309;28;20243;-75
2021/04/24 12:35:45;;;;;;;4.07;2.20;;;14.30;85.50;;;;;;4975546;28;20241;-76
2021/04/24 12:38:14;;;;;;;4.63;1.87;;;14.20;82.90;;;;;;4975602;28;20211;-75
2021/04/24 12:40:43;;;;;;;3.90;1.97;;;14.10;83.90;;;;;;4975325;28;20211;-76
2021/04/24 12:43:11;;;;;;;3.10;1.70;;;14.10;83.50;;;;;;4975275;28;20227;-75
2021/04/24 12:45:42;;;;;;;5.53;1.87;;;14.20;84.10;;;;;;4975303;28;20211;-76
2021/04/24 12:48:14;;;;;;;4.57;2.20;;;14.20;84.30;;;;;;4975250;28;20670;-74
2021/04/24 12:50:41;;;;;;;5.73;1.93;;;14.40;83.90;;;;;;4975291;28;20215;-77
2021/04/24 12:53:09;;;;;;;3.30;2.00;;;14.50;84.20;;;;;;4975168;28;20246;-74
2021/04/24 12:55:37;;;;;;;3.80;2.00;;;14.40;83.60;;;;;;4975203;28;20215;-76
2021/04/24 12:58:06;;;;;;;6.67;2.20;;;14.30;83.30;;;;;;4974887;28;20262;-74
2021/04/24 13:00:39;;;;;;;4.27;2.17;;;14.30;83.20;;;;;;4975341;28;20258;-74
2021/04/24 13:03:26;;;;;;;6.40;2.57;;;14.40;85.10;;;;;;4975102;28;20230;-74
2021/04/24 13:05:53;;;;;;;5.50;2.10;;;14.60;85.40;;;;;;4974853;28;20214;-75
2021/04/24 13:08:19;;;;;;;4.17;1.53;;;14.60;87.60;;;;;;4974616;28;20257;-74
2021/04/24 13:10:46;;;;;;;3.37;1.83;;;14.60;87.10;;;;;;4974600;28;20305;-74
2021/04/24 13:13:19;;;;;;;3.90;2.07;;;14.70;85.70;;;;;;4974839;28;20231;-74
2021/04/24 13:15:47;;;;;;;6.20;2.43;;;14.70;83.80;;;;;;4974801;28;20551;-74
2021/04/24 13:18:30;;;;;;;5.20;2.13;;;14.50;83.20;;;;;;4975047;28;20211;-74
2021/04/24 13:20:58;;;;;;;4.67;2.20;;;14.40;85.20;;;;;;4974723;28;20211;-74
2021/04/24 13:23:25;;;;;;;6.20;2.30;;;14.40;86.00;;;;;;4975380;28;20318;-74
2021/04/24 13:25:51;;;;;;;5.43;2.03;;;14.50;86.20;;;;;;4974500;28;20219;-75
2021/04/24 13:28:29;;;;;;;4.30;2.30;;;14.50;85.20;;;;;;4974530;28;20231;-74
2021/04/24 13:30:59;;;;;;;3.97;2.07;;;14.50;85.20;;;;;;4974728;28;20326;-75
2021/04/24 13:33:33;;;;;;;6.10;2.80;;;14.60;87.00;;;;;;4974377;28;20258;-74
2021/04/24 13:36:00;;;;;;;3.40;1.80;;;14.70;86.50;;;;;;4974627;28;20253;-75
2021/04/24 13:38:30;;;;;;;4.67;2.20;;;14.70;83.30;;;;;;4974438;28;20215;-75
2021/04/24 13:40:57;;;;;;;11.13;2.73;;;14.70;83.90;;;;;;4974000;28;20578;-75
2021/04/24 13:43:25;;;;;;;3.90;2.10;;;14.80;84.40;;;;;;4973944;28;20634;-74
2021/04/24 13:45:52;;;;;;;3.37;1.80;;;14.80;85.00;;;;;;4974257;28;21076;-75
2021/04/24 13:48:26;;;;;;;6.50;2.20;;;14.80;83.40;;;;;;4974046;28;20326;-74
2021/04/24 13:50:53;;;;;;;4.03;1.63;;;14.80;83.90;;;;;;4974534;28;20613;-74
2021/04/24 13:53:20;;;;;;;5.47;2.10;;;14.80;84.10;;;;;;4974372;28;20227;-75
2021/04/24 13:55:47;;;;;;;3.20;1.83;;;14.90;84.10;;;;;;4974479;28;20261;-75
2021/04/24 13:58:16;;;;;;;4.33;2.30;;;14.90;82.80;;;;;;4974170;28;20211;-75
2021/04/24 14:00:44;;;;;;;3.57;2.10;;;14.70;83.50;;;;;;4974042;28;20585;-74
2021/04/24 14:03:10;;;;;;;4.03;2.20;;;14.80;83.70;;;;;;4974336;28;20294;-74
2021/04/24 14:05:37;;;;;;;5.67;2.10;;;14.90;83.50;;;;;;4974193;28;20559;-74
2021/04/24 14:08:04;;;;;;;4.37;2.03;;;14.90;82.90;;;;;;4974062;28;20709;-74
2021/04/24 14:10:30;;;;;;;2.93;1.77;;;14.80;82.20;;;;;;4974326;28;20215;-74
2021/04/24 14:12:57;;;;;;;3.17;1.57;;;15.00;83.50;;;;;;4973737;28;20227;-74
2021/04/24 14:15:24;;;;;;;3.20;1.83;;;14.90;83.50;;;;;;4974091;28;20667;-74
2021/04/24 14:17:50;;;;;;;4.07;2.03;;;14.90;83.50;;;;;;4974211;28;20215;-74
2021/04/24 14:20:19;;;;;;;3.23;1.97;;;14.90;84.70;;;;;;4977699;28;20233;-73
2021/04/24 14:22:47;;;;;;;3.67;1.80;;;15.10;84.30;;;;;;4977827;28;20227;-73
2021/04/24 14:25:14;;;;;;;4.13;1.50;;;15.00;83.10;;;;;;4977757;28;20258;-73
2021/04/24 14:27:40;;;;;;;4.13;1.60;;;15.00;83.50;;;;;;4977334;28;20301;-73
2021/04/24 14:30:09;;;;;;;3.67;2.00;;;15.10;83.70;;;;;;4977975;28;20360;-74
2021/04/24 14:32:36;;;;;;;4.00;1.80;;;15.20;81.90;;;;;;4977841;28;20289;-74
2021/04/24 14:35:02;;;;;;;5.00;2.13;;;15.20;80.70;;;;;;4977777;28;20207;-73
2021/04/24 14:37:29;;;;;;;5.10;1.80;;;15.00;80.60;;;;;;4977676;28;20202;-74
2021/04/24 14:39:56;;;;;;;5.00;2.10;;;14.90;81.80;;;;;;4977576;28;20214;-73
2021/04/24 14:42:22;;;;;;;5.27;1.93;;;15.00;82.90;;;;;;4977251;28;20714;-74
2021/04/24 14:44:49;;;;;;;2.73;1.70;;;15.20;82.60;;;;;;4977591;28;20215;-73
2021/04/24 14:47:15;;;;;;;3.63;1.53;;;15.20;81.90;;;;;;4977314;28;20235;-74
2021/04/24 14:49:41;;;;;;;3.47;1.77;;;15.20;82.50;;;;;;4977254;28;20215;-74
2021/04/24 14:52:07;;;;;;;3.27;1.73;;;15.10;82.50;;;;;;4977280;28;20660;-74
2021/04/24 14:54:34;;;;;;;4.23;2.13;;;15.10;81.90;;;;;;4977466;28;20211;-75
2021/04/24 14:57:01;;;;;;;3.50;1.80;;;15.10;81.30;;;;;;4977186;28;20215;-75
2021/04/24 14:59:27;;;;;;;3.90;1.77;;;15.20;81.50;;;;;;4977367;28;20211;-75
2021/04/24 15:01:54;;;;;;;2.63;1.40;;;15.10;80.10;;;;;;4977234;28;20234;-75
2021/04/24 15:04:21;;;;;;;4.53;1.57;;;14.90;80.20;;;;;;4977320;28;20222;-73
2021/04/24 15:06:47;;;;;;;6.70;2.03;;;14.80;82.50;;;;;;4977126;28;20214;-75
2021/04/24 15:09:13;;;;;;;3.57;1.50;;;14.80;82.60;;;;;;4977067;28;20594;-75
2021/04/24 15:11:40;;;;;;;5.77;1.67;;;15.00;82.00;;;;;;4977356;28;20269;-74
2021/04/24 15:14:08;;;;;;;3.43;1.67;;;15.00;82.20;;;;;;4977276;28;20214;-75
2021/04/24 15:16:35;;;;;;;2.97;1.80;;;15.20;81.60;;;;;;4977063;28;20230;-74
2021/04/24 15:19:01;;;;;;;6.00;1.70;;;15.10;80.60;;;;;;4976554;28;20207;-74
2021/04/24 15:21:28;;;;;;;5.37;1.73;;;15.10;79.90;;;;;;4976493;28;20214;-75
2021/04/24 15:23:54;;;;;;;2.83;1.43;;;14.90;81.10;;;;;;4976731;28;20215;-75
2021/04/24 15:26:21;;;;;;;3.43;1.60;;;15.00;81.80;;;;;;4976615;28;20227;-74
2021/04/24 15:28:48;;;;;;;3.00;1.57;;;15.10;81.60;;;;;;4976907;28;20231;-74
2021/04/24 15:31:15;;;;;;;3.43;1.50;;;15.10;80.70;;;;;;4975406;28;20657;-74
2021/04/24 15:33:41;;;;;;;2.63;1.47;;;15.30;78.80;;;;;;4976724;28;20234;-74
2021/04/24 15:36:08;;;;;;;3.40;1.73;;;15.20;79.70;;;;;;4976863;28;20215;-76
2021/04/24 15:38:34;;;;;;;3.07;1.43;;;15.10;79.20;;;;;;4976888;28;20204;-75
2021/04/24 15:41:00;;;;;;;4.60;1.57;;;14.90;79.50;;;;;;4976333;28;20676;-74
2021/04/24 15:43:26;;;;;;;2.83;1.40;;;14.90;80.10;;;;;;4976226;28;20702;-75
2021/04/24 15:45:53;;;;;;;2.80;1.60;;;14.90;80.00;;;;;;4976523;28;20210;-74
2021/04/24 15:48:20;;;;;;;4.73;1.37;;;15.00;80.50;;;;;;4976346;28;20242;-74
2021/04/24 15:50:46;;;;;;;2.77;1.30;;;15.10;80.30;;;;;;4976387;28;20261;-75
2021/04/24 15:53:12;;;;;;;2.77;1.40;;;15.10;79.60;;;;;;4976215;28;20297;-74
2021/04/24 15:55:40;;;;;;;2.43;1.60;;;15.00;79.20;;;;;;4976552;28;20203;-74
2021/04/24 15:58:07;;;;;;;3.17;1.77;;;15.00;79.00;;;;;;4976444;28;20276;-74
2021/04/24 16:00:33;;;;;;;3.80;1.60;;;15.00;78.20;;;;;;4976485;28;20207;-74
2021/04/24 16:03:01;;;;;;;3.87;1.70;;;15.20;78.20;;;;;;4976289;28;20229;-74
2021/04/24 16:05:29;;;;;;;2.17;1.20;;;15.10;77.30;;;;;;4976169;28;20214;-75
2021/04/24 16:07:56;;;;;;;2.47;1.43;;;15.10;77.50;;;;;;4976194;28;20242;-74
2021/04/24 16:10:23;;;;;;;2.80;1.43;;;15.00;77.60;;;;;;4976320;28;20215;-76
2021/04/24 16:12:50;;;;;;;4.43;1.40;;;14.80;78.50;;;;;;4976056;28;20227;-75
2021/04/24 16:15:18;;;;;;;3.17;1.37;;;14.80;78.90;;;;;;4975827;28;20218;-74
2021/04/24 16:17:45;;;;;;;3.40;1.23;;;14.80;79.10;;;;;;4975911;28;20203;-75
2021/04/24 16:20:13;;;;;;;2.90;1.60;;;14.90;78.90;;;;;;4975814;28;20298;-74
2021/04/24 16:22:41;;;;;;;2.27;1.30;;;14.90;78.80;;;;;;4976937;28;20227;-75
2021/04/24 16:25:08;;;;;;;3.40;1.37;;;15.00;78.80;;;;;;4976855;28;20207;-74
2021/04/24 16:27:35;;;;;;;3.23;1.70;;;15.10;78.30;;;;;;4976153;28;20237;-76
2021/04/24 16:30:01;;;;;;;3.93;1.33;;;15.10;78.10;;;;;;4976291;28;20254;-75
2021/04/24 16:32:27;;;;;;;3.67;1.60;;;14.90;78.00;;;;;;4976123;28;20227;-75
2021/04/24 16:34:54;;;;;;;3.23;1.47;;;14.80;78.70;;;;;;4975837;28;20210;-74
2021/04/24 16:37:20;;;;;;;4.63;1.47;;;14.80;78.30;;;;;;4976018;28;20211;-75
2021/04/24 16:39:47;;;;;;;2.67;1.60;;;14.80;77.80;;;;;;4975697;28;20212;-76
2021/04/24 16:42:13;;;;;;;4.70;1.60;;;14.80;78.10;;;;;;4974874;28;20744;-76
2021/04/24 16:44:40;;;;;;;2.60;1.40;;;14.70;77.20;;;;;;4975379;28;20211;-75
2021/04/24 16:47:06;;;;;;;2.97;1.30;;;14.60;77.30;;;;;;4974881;28;20246;-75
2021/04/24 16:49:32;;;;;;;4.10;1.13;;;14.60;78.30;;;;;;4975188;28;20207;-75
2021/04/24 16:51:58;;;;;;;3.13;1.23;;;14.80;78.70;;;;;;4975071;28;20733;-75
2021/04/24 16:54:24;;;;;;;4.03;1.50;;;14.80;78.70;;;;;;4975337;28;20211;-74
2021/04/24 16:56:52;;;;;;;4.90;1.63;;;14.80;79.60;;;;;;4975145;28;20219;-74
2021/04/24 16:59:18;;;;;;;4.67;1.67;;;14.80;79.90;;;;;;4974945;28;20307;-74
2021/04/24 17:01:44;;;;;;;8.77;3.13;;;14.70;79.20;;;;;;4974994;28;20207;-75
2021/04/24 17:04:10;;;;;;;4.37;1.37;;;14.70;78.70;;;;;;4975244;28;20206;-74
2021/04/24 17:06:37;;;;;;;2.30;1.30;;;14.70;78.40;;;;;;4974967;28;20207;-75
2021/04/24 17:09:04;;;;;;;2.87;1.73;;;14.60;79.30;;;;;;4974790;28;20239;-75
2021/04/24 17:11:31;;;;;;;3.23;1.27;;;14.50;79.00;;;;;;4974740;28;20217;-75
2021/04/24 17:13:58;;;;;;;2.60;1.17;;;14.40;78.50;;;;;;4974973;28;20265;-75
2021/04/24 17:16:25;;;;;;;3.27;1.40;;;14.30;78.50;;;;;;4974438;28;20215;-75
2021/04/24 17:18:51;;;;;;;3.33;1.33;;;14.40;78.30;;;;;;4974901;28;20218;-74
2021/04/24 17:21:17;;;;;;;3.70;1.10;;;14.30;77.30;;;;;;4975006;28;20215;-74
2021/04/24 17:23:43;;;;;;;3.53;1.80;;;14.30;78.00;;;;;;4974768;28;20294;-74
2021/04/24 17:26:10;;;;;;;3.53;1.50;;;14.20;78.30;;;;;;4974535;28;20578;-75
2021/04/24 17:28:36;;;;;;;2.50;1.20;;;14.30;79.00;;;;;;4974576;28;20305;-74
2021/04/24 17:31:03;;;;;;;3.77;1.90;;;14.20;78.60;;;;;;4974414;28;20228;-73
2021/04/24 17:33:32;;;;;;;5.60;2.10;;;14.20;77.50;;;;;;4974595;28;20231;-75
2021/04/24 17:35:59;;;;;;;1.50;1.03;;;14.10;77.20;;;;;;4974632;28;20330;-74
2021/04/24 17:38:26;;;;;;;5.43;1.50;;;14.00;76.10;;;;;;4974320;28;20262;-75
2021/04/24 17:40:52;;;;;;;3.30;1.57;;;14.00;77.40;;;;;;4974327;28;20207;-75
2021/04/24 17:43:18;;;;;;;2.27;1.43;;;13.90;77.70;;;;;;4974079;28;20290;-76
2021/04/24 17:45:44;;;;;;;3.30;1.27;;;14.00;76.50;;;;;;4974179;28;20211;-75
2021/04/24 17:48:12;;;;;;;3.37;1.70;;;14.00;76.30;;;;;;4974204;28;20246;-75
2021/04/24 17:50:38;;;;;;;4.83;1.50;;;13.90;76.50;;;;;;4974246;28;20207;-75
2021/04/24 17:53:04;;;;;;;2.00;1.20;;;13.90;76.40;;;;;;4973404;28;20231;-74
2021/04/24 17:55:30;;;;;;;3.70;1.30;;;13.70;76.70;;;;;;4974163;28;20277;-75
2021/04/24 17:57:57;;;;;;;2.13;1.03;;;13.70;77.40;;;;;;4974204;28;20211;-74
2021/04/24 18:00:26;;;;;;;6.23;1.13;;;13.80;77.90;;;;;;4974176;28;20273;-75
2021/04/24 18:02:52;;;;;;;3.40;1.23;;;13.80;78.50;;;;;;4974099;28;20227;-75
2021/04/24 18:05:20;;;;;;;2.30;1.13;;;13.60;78.70;;;;;;4974396;28;20270;-75
2021/04/24 18:07:47;;;;;;;1.60;1.00;;;13.60;78.70;;;;;;4974228;28;20293;-75
2021/04/24 18:10:15;;;;;;;2.77;1.60;;;13.50;78.80;;;;;;4974112;28;20203;-76
2021/04/24 18:12:41;;;;;;;1.80;1.00;;;13.50;79.20;;;;;;4973665;28;20701;-74
2021/04/24 18:15:11;;;;;;;5.00;1.20;;;13.40;79.20;;;;;;4974093;28;20211;-75
2021/04/24 18:17:40;;;;;;;2.93;1.30;;;13.40;80.00;;;;;;4974117;28;20219;-74
2021/04/24 18:20:07;;;;;;;2.57;1.03;;;13.30;80.70;;;;;;4974292;28;20229;-75
2021/04/24 18:22:34;;;;;;;4.57;1.40;;;13.20;80.50;;;;;;4973865;28;20274;-74
2021/04/24 18:25:01;;;;;;;3.77;1.20;;;13.10;80.90;;;;;;4973886;28;20294;-75
2021/04/24 18:27:27;;;;;;;4.03;1.67;;;13.20;81.50;;;;;;4973439;28;20567;-75
2021/04/24 18:29:53;;;;;;;3.00;1.30;;;13.10;81.40;;;;;;4973882;28;20662;-74
2021/04/24 18:32:19;;;;;;;7.37;1.60;;;13.20;81.70;;;;;;4973840;28;20233;-75
2021/04/24 18:34:46;;;;;;;5.97;1.50;;;13.20;82.00;;;;;;4973991;28;20212;-75
2021/04/24 18:37:12;;;;;;;4.27;1.60;;;13.10;82.60;;;;;;4974401;28;20214;-75
2021/04/24 18:39:39;;;;;;;3.60;1.30;;;12.90;83.60;;;;;;4973844;28;20234;-75
2021/04/24 18:42:06;;;;;;;4.90;1.77;;;12.90;84.00;;;;;;4973859;28;20230;-75
2021/04/24 18:44:32;;;;;;;6.70;1.47;;;12.80;84.50;;;;;;4974060;28;20208;-74
2021/04/24 18:46:58;;;;;;;6.27;1.73;;;12.60;84.90;;;;;;4973877;28;20211;-74
2021/04/24 18:49:25;;;;;;;2.20;1.30;;;12.40;85.40;;;;;;4973855;28;20211;-74
2021/04/24 18:51:52;;;;;;;3.57;1.67;;;12.40;85.80;;;;;;4974039;28;20593;-75
2021/04/24 18:54:19;;;;;;;2.83;1.10;;;12.30;85.80;;;;;;4974344;28;20290;-75
2021/04/24 18:56:46;;;;;;;3.53;1.70;;;12.10;85.20;;;;;;4973988;28;20215;-74
2021/04/24 18:59:12;;;;;;;3.37;1.60;;;12.10;84.70;;;;;;4974447;28;20218;-74
2021/04/24 19:01:38;;;;;;;3.77;1.07;;;12.10;84.80;;;;;;4974425;28;20286;-74
2021/04/24 19:04:05;;;;;;;2.60;1.30;;;11.90;85.20;;;;;;4973774;28;20256;-75
2021/04/24 19:06:35;;;;;;;4.27;1.37;;;12.00;85.10;;;;;;4977783;28;20207;-75
2021/04/24 19:09:02;;;;;;;3.53;1.63;;;11.80;85.60;;;;;;4977356;28;20776;-75
2021/04/24 19:11:29;;;;;;;2.80;1.20;;;11.70;86.00;;;;;;4972019;28;20210;-74
2021/04/24 19:13:56;;;;;;;3.83;1.30;;;11.60;86.40;;;;;;4973122;28;20218;-74
2021/04/24 19:16:22;;;;;;;5.27;1.10;;;11.60;86.70;;;;;;4975329;28;20215;-74
2021/04/24 19:18:48;;;;;;;3.00;1.33;;;11.60;86.90;;;;;;4975787;28;20226;-74
2021/04/24 19:21:15;;;;;;;3.73;1.23;;;11.60;86.80;;;;;;4972206;28;20257;-75
2021/04/24 19:23:41;;;;;;;4.17;1.20;;;11.60;87.00;;;;;;4973501;28;20242;-75
2021/04/24 19:26:08;;;;;;;3.03;1.20;;;11.40;87.60;;;;;;4976424;28;20215;-74
2021/04/24 19:28:35;;;;;;;3.10;1.17;;;11.40;87.80;;;;;;4972897;28;20285;-74
2021/04/24 19:31:02;;;;;;;3.77;1.20;;;11.30;88.40;;;;;;4975784;28;20214;-75
2021/04/24 19:33:28;;;;;;;3.57;1.60;;;11.30;88.20;;;;;;4975590;28;20223;-74
2021/04/24 19:35:55;;;;;;;2.50;1.37;;;11.30;88.50;;;;;;4976009;28;20203;-75
2021/04/24 19:38:21;;;;;;;3.80;1.67;;;11.20;88.70;;;;;;4975535;28;20207;-74
2021/04/24 19:40:49;;;;;;;5.20;1.83;;;11.20;88.80;;;;;;4975702;28;20211;-74
2021/04/24 19:43:15;;;;;;;3.27;1.40;;;11.20;88.90;;;;;;4975505;28;20586;-74
2021/04/24 19:45:42;;;;;;;3.97;1.27;;;11.20;89.00;;;;;;4975502;28;20234;-74
2021/04/24 19:48:11;;;;;;;3.20;1.30;;;11.20;89.30;;;;;;4975415;28;20237;-75
2021/04/24 19:50:38;;;;;;;2.20;1.30;;;11.10;89.60;;;;;;4974813;28;20210;-74
2021/04/24 19:53:05;;;;;;;4.17;1.60;;;11.00;90.10;;;;;;4975830;28;20227;-74
2021/04/24 19:55:33;;;;;;;3.50;1.53;;;10.80;90.30;;;;;;4975123;28;20207;-74
2021/04/24 19:58:00;;;;;;;7.53;1.27;;;10.90;90.40;;;;;;4971492;28;20286;-74
2021/04/24 20:00:27;;;;;;;4.63;1.30;;;10.90;90.40;;;;;;4975098;28;20200;-74
2021/04/24 20:02:55;;;;;;;5.37;1.23;;;10.90;90.50;;;;;;4975358;28;20234;-74
2021/04/24 20:05:23;;;;;;;3.13;1.60;;;10.90;90.50;;;;;;4974767;28;20260;-74
2021/04/24 20:07:51;;;;;;;4.43;1.30;;;10.80;90.50;;;;;;4973614;28;20693;-75
2021/04/24 20:10:19;;;;;;;2.30;0.97;;;10.80;90.60;;;;;;4975081;28;20667;-75
2021/04/24 20:12:46;;;;;;;3.37;1.33;;;10.80;90.70;;;;;;4972390;28;20227;-74
2021/04/24 20:15:14;;;;;;;5.13;1.20;;;10.70;90.70;;;;;;4974156;28;20218;-74
2021/04/24 20:17:41;;;;;;;3.03;1.50;;;10.60;90.80;;;;;;4973368;28;20219;-75
2021/04/24 20:20:08;;;;;;;3.07;1.30;;;10.50;91.00;;;;;;4974899;28;20207;-74